createdAt,value
2019-03-28T07:00:35.199Z,1156.00
2019-03-28T07:01:35.200Z,1244.00
2019-03-28T07:02:35.150Z,1292.00
2019-03-28T07:03:35.146Z,1316.00
2019-03-28T07:04:35.166Z,1332.00
2019-03-28T07:05:35.117Z,1332.00
2019-03-28T07:06:35.143Z,1312.00
2019-03-28T07:07:35.095Z,1284.00
2019-03-28T07:08:35.138Z,1264.00
2019-03-28T07:09:35.078Z,1268.00
2019-03-28T07:10:35.107Z,1272.00
2019-03-28T07:11:35.053Z,1276.00
2019-03-28T07:12:35.080Z,1300.00
2019-03-28T07:13:35.065Z,1340.00
2019-03-28T07:14:35.038Z,1408.00
2019-03-28T07:15:36.710Z,1476.00
2019-03-28T07:16:35.000Z,1548.00
2019-03-28T07:17:35.034Z,1592.00
2019-03-28T07:18:34.997Z,1624.00
2019-03-28T07:19:34.968Z,1656.00
2019-03-28T07:20:34.961Z,1684.00
2019-03-28T07:21:34.968Z,1704.00
2019-03-28T07:22:34.993Z,1732.00
2019-03-28T07:23:34.925Z,1744.00
2019-03-28T07:24:34.928Z,1744.00
2019-03-28T07:25:34.938Z,1768.00
2019-03-28T07:26:34.911Z,1820.00
2019-03-28T07:27:34.906Z,1944.00
2019-03-28T07:28:34.882Z,2084.00
2019-03-28T07:29:34.885Z,2228.00
2019-03-28T07:30:34.870Z,2368.00
2019-03-28T07:31:35.580Z,2436.00
2019-03-28T07:32:34.881Z,2480.00
2019-03-28T07:33:34.849Z,2524.00
2019-03-28T07:34:34.839Z,2540.00
2019-03-28T07:35:34.807Z,2556.00
2019-03-28T07:36:34.841Z,2572.00
2019-03-28T07:37:34.789Z,2572.00
2019-03-28T07:38:34.767Z,2568.00
2019-03-28T07:39:34.764Z,2568.00
2019-03-28T07:40:34.798Z,2556.00
2019-03-28T07:41:34.769Z,2568.00
2019-03-28T07:42:34.732Z,2632.00
2019-03-28T07:43:34.717Z,2708.00
2019-03-28T07:44:37.471Z,2764.00
2019-03-28T07:45:34.769Z,2812.00
2019-03-28T07:46:34.746Z,2856.00
2019-03-28T07:47:34.668Z,2920.00
2019-03-28T07:48:34.663Z,2984.00
2019-03-28T07:49:37.491Z,3048.00
2019-03-28T07:50:34.654Z,3080.00
2019-03-28T07:51:34.694Z,3080.00
2019-03-28T07:52:34.619Z,3076.00
2019-03-28T07:53:34.610Z,2956.00
2019-03-28T07:54:34.600Z,2932.00
2019-03-28T07:55:34.608Z,2944.00
2019-03-28T07:56:34.619Z,2972.00
2019-03-28T07:57:34.566Z,2912.00
2019-03-28T07:58:35.292Z,2796.00
2019-03-28T07:59:34.559Z,2668.00
2019-03-28T08:00:34.558Z,2644.00
2019-03-28T08:01:34.531Z,2720.00
2019-03-28T08:02:34.520Z,2888.00
2019-03-28T08:03:34.550Z,3072.00
2019-03-28T08:04:34.491Z,3252.00
2019-03-28T08:05:34.489Z,3404.00
2019-03-28T08:06:34.475Z,3488.00
2019-03-28T08:07:44.235Z,3476.00
2019-03-28T08:08:39.033Z,3528.00
2019-03-28T08:09:36.869Z,3716.00
2019-03-28T08:10:34.423Z,3844.00
2019-03-28T08:11:34.584Z,3976.00
2019-03-28T08:12:34.410Z,4092.00
2019-03-28T08:13:34.418Z,4204.00
2019-03-28T08:14:34.382Z,4372.00
2019-03-28T08:15:34.426Z,4432.00
2019-03-28T08:16:34.361Z,4284.00
2019-03-28T08:17:34.349Z,4044.00
2019-03-28T08:18:34.344Z,3820.00
2019-03-28T08:19:34.324Z,3688.00
2019-03-28T08:20:34.351Z,3628.00
2019-03-28T08:21:34.311Z,3556.00
2019-03-28T08:22:34.294Z,3472.00
2019-03-28T08:23:35.491Z,3476.00
2019-03-28T08:24:34.303Z,3516.00
2019-03-28T08:25:34.259Z,3548.00
2019-03-28T08:26:34.307Z,3536.00
2019-03-28T08:27:34.237Z,3580.00
2019-03-28T08:28:34.225Z,3656.00
2019-03-28T08:29:34.221Z,3624.00
2019-03-28T08:30:34.253Z,3492.00
2019-03-28T08:31:34.196Z,3324.00
2019-03-28T08:32:34.722Z,3208.00
2019-03-28T08:33:34.170Z,3180.00
2019-03-28T08:34:34.162Z,3228.00
2019-03-28T08:35:34.184Z,3352.00
2019-03-28T08:36:34.142Z,3508.00
2019-03-28T08:37:34.143Z,3664.00
2019-03-28T08:38:34.152Z,3816.00
2019-03-28T08:39:34.118Z,3996.00
2019-03-28T08:40:34.098Z,4224.00
2019-03-28T08:41:34.094Z,4468.00
2019-03-28T08:42:34.112Z,4656.00
2019-03-28T08:43:36.053Z,4748.00
2019-03-28T08:44:34.058Z,4728.00
2019-03-28T08:45:34.495Z,4656.00
2019-03-28T08:46:34.039Z,4472.00
2019-03-28T08:47:34.054Z,4340.00
2019-03-28T08:48:34.012Z,4264.00
2019-03-28T08:49:34.007Z,4172.00
2019-03-28T08:50:34.011Z,4056.00
2019-03-28T08:51:34.123Z,4060.00
2019-03-28T08:52:34.002Z,4184.00
2019-03-28T08:53:33.960Z,4324.00
2019-03-28T08:54:33.954Z,4500.00
2019-03-28T08:55:33.941Z,4620.00
2019-03-28T08:56:33.924Z,4708.00
2019-03-28T08:57:33.957Z,4636.00
2019-03-28T08:58:33.901Z,4528.00
2019-03-28T08:59:33.907Z,4476.00
2019-03-28T09:00:50.208Z,4488.00
2019-03-28T09:01:34.902Z,4416.00
2019-03-28T09:02:33.867Z,4420.00
2019-03-28T09:03:33.856Z,4504.00
2019-03-28T09:04:33.839Z,4624.00
2019-03-28T09:05:33.833Z,4676.00
2019-03-28T09:06:33.845Z,4608.00
2019-03-28T09:07:33.821Z,4504.00
2019-03-28T09:08:33.796Z,4308.00
2019-03-28T09:09:33.788Z,4056.00
2019-03-28T09:10:33.804Z,3860.00
2019-03-28T09:11:33.765Z,3776.00
2019-03-28T09:12:35.284Z,3760.00
2019-03-28T09:13:33.838Z,3792.00
2019-03-28T09:14:33.735Z,3864.00
2019-03-28T09:15:43.640Z,3948.00
2019-03-28T09:16:34.706Z,3912.00
2019-03-28T09:17:33.708Z,3856.00
2019-03-28T09:18:33.741Z,3828.00
2019-03-28T09:19:33.678Z,3812.00
2019-03-28T09:20:33.667Z,3868.00
2019-03-28T09:21:33.658Z,3956.00
2019-03-28T09:22:34.465Z,4048.00
2019-03-28T09:23:33.712Z,4084.00
2019-03-28T09:24:33.629Z,4072.00
2019-03-28T09:25:33.616Z,4048.00
2019-03-28T09:26:33.600Z,4008.00
2019-03-28T09:27:33.594Z,4044.00
2019-03-28T09:28:33.602Z,4068.00
2019-03-28T09:29:33.577Z,4052.00
2019-03-28T09:30:46.822Z,3940.00
2019-03-28T09:31:34.549Z,3832.00
2019-03-28T09:32:33.539Z,3764.00
2019-03-28T09:33:33.546Z,3716.00
2019-03-28T09:34:33.517Z,3688.00
2019-03-28T09:35:33.560Z,3688.00
2019-03-28T09:36:33.504Z,3680.00
2019-03-28T09:37:33.514Z,3692.00
2019-03-28T09:38:33.512Z,3688.00
2019-03-28T09:39:33.471Z,3644.00
2019-03-28T09:40:33.449Z,3556.00
2019-03-28T09:41:33.445Z,3468.00
2019-03-28T09:42:33.426Z,3412.00
2019-03-28T09:43:33.452Z,3440.00
2019-03-28T09:44:33.407Z,3524.00
2019-03-28T09:45:33.415Z,3604.00
2019-03-28T09:46:33.385Z,3576.00
2019-03-28T09:47:33.393Z,3412.00
2019-03-28T09:48:33.386Z,3120.00
2019-03-28T09:49:33.352Z,2752.00
2019-03-28T09:50:33.344Z,2604.00
2019-03-28T09:51:35.206Z,2772.00
2019-03-28T09:52:33.354Z,3040.00
2019-03-28T09:53:33.329Z,3268.00
2019-03-28T09:54:33.307Z,3372.00
2019-03-28T09:55:33.317Z,3388.00
2019-03-28T09:56:33.288Z,3412.00
2019-03-28T09:57:33.277Z,3420.00
2019-03-28T09:58:33.912Z,3416.00
2019-03-28T09:59:33.242Z,3408.00
2019-03-28T10:00:34.606Z,3440.00
2019-03-28T10:01:33.255Z,3508.00
2019-03-28T10:02:33.215Z,3612.00
2019-03-28T10:03:33.202Z,3676.00
2019-03-28T10:04:33.230Z,3708.00
2019-03-28T10:05:33.187Z,3700.00
2019-03-28T10:06:33.172Z,3672.00
2019-03-28T10:07:33.160Z,3616.00
2019-03-28T10:08:33.148Z,3564.00
2019-03-28T10:09:33.173Z,3544.00
2019-03-28T10:10:33.136Z,3556.00
2019-03-28T10:11:33.116Z,3596.00
2019-03-28T10:12:34.323Z,3628.00
2019-03-28T10:13:33.103Z,3644.00
2019-03-28T10:14:33.119Z,3660.00
2019-03-28T10:15:33.119Z,3656.00
2019-03-28T10:16:33.095Z,3652.00
2019-03-28T10:17:33.065Z,3624.00
2019-03-28T10:18:33.039Z,3588.00
2019-03-28T10:19:33.059Z,3552.00
2019-03-28T10:20:33.060Z,3580.00
2019-03-28T10:21:33.013Z,3636.00
2019-03-28T10:22:32.994Z,3696.00
2019-03-28T10:23:32.986Z,3768.00
2019-03-28T10:24:32.994Z,3816.00
2019-03-28T10:25:32.991Z,3880.00
2019-03-28T10:26:32.981Z,3952.00
2019-03-28T10:27:32.954Z,4004.00
2019-03-28T10:28:32.935Z,4060.00
2019-03-28T10:29:32.950Z,4136.00
2019-03-28T10:30:32.917Z,4240.00
2019-03-28T10:31:32.937Z,4400.00
2019-03-28T10:32:32.895Z,4580.00
2019-03-28T10:33:32.885Z,4740.00
2019-03-28T10:34:32.871Z,4880.00
2019-03-28T10:35:32.859Z,5004.00
2019-03-28T10:36:32.882Z,5104.00
2019-03-28T10:37:32.840Z,5184.00
2019-03-28T10:38:32.831Z,5288.00
2019-03-28T10:39:32.844Z,5480.00
2019-03-28T10:40:32.807Z,5788.00
2019-03-28T10:41:32.842Z,6152.00
2019-03-28T10:42:32.795Z,6404.00
2019-03-28T10:43:32.783Z,6352.00
2019-03-28T10:44:32.760Z,6092.00
2019-03-28T10:45:33.755Z,5760.00
2019-03-28T10:46:32.763Z,5688.00
2019-03-28T10:47:32.731Z,5920.00
2019-03-28T10:48:32.728Z,6380.00
2019-03-28T10:49:32.736Z,7140.00
2019-03-28T10:50:40.742Z,8056.00
2019-03-28T10:51:33.729Z,9000.00
2019-03-28T10:52:32.675Z,9956.00
2019-03-28T10:53:32.676Z,10284.00
2019-03-28T10:54:32.658Z,9852.00
2019-03-28T10:55:32.639Z,9320.00
2019-03-28T10:56:32.631Z,9236.00
2019-03-28T10:57:32.678Z,9276.00
2019-03-28T10:58:34.980Z,9564.00
2019-03-28T10:59:32.598Z,9964.00
2019-03-28T11:00:32.602Z,10280.00
2019-03-28T11:01:47.496Z,10924.00
2019-03-28T11:02:33.592Z,12120.00
2019-03-28T11:03:32.580Z,13864.00
2019-03-28T11:04:32.546Z,15488.00
2019-03-28T11:05:32.541Z,16896.00
2019-03-28T11:06:32.723Z,15808.00
2019-03-28T11:07:32.556Z,15148.00
2019-03-28T11:08:32.513Z,14424.00
2019-03-28T11:09:32.498Z,13568.00
2019-03-28T11:10:32.480Z,13268.00
2019-03-28T11:11:32.494Z,13812.00
2019-03-28T11:12:32.464Z,13752.00
2019-03-28T11:13:32.461Z,13672.00
2019-03-28T11:14:32.473Z,13240.00
2019-03-28T11:15:32.428Z,12128.00
2019-03-28T11:16:32.412Z,11248.00
2019-03-28T11:17:32.404Z,11272.00
2019-03-28T11:18:32.434Z,11256.00
2019-03-28T11:19:32.389Z,11248.00
2019-03-28T11:20:32.375Z,11324.00
2019-03-28T11:21:34.304Z,10940.00
2019-03-28T11:22:32.352Z,10856.00
2019-03-28T11:23:32.702Z,10996.00
2019-03-28T11:24:32.331Z,10820.00
2019-03-28T11:25:32.334Z,10896.00
2019-03-28T11:26:32.315Z,11256.00
2019-03-28T11:27:32.299Z,11584.00
2019-03-28T11:28:32.326Z,11556.00
2019-03-28T11:29:32.296Z,11756.00
2019-03-28T11:30:32.277Z,12488.00
2019-03-28T11:31:45.259Z,13656.00
2019-03-28T11:32:35.789Z,15648.00
2019-03-28T11:33:32.250Z,16192.00
2019-03-28T11:34:32.235Z,15904.00
2019-03-28T11:35:32.683Z,15616.00
2019-03-28T11:36:32.204Z,15840.00
2019-03-28T11:37:32.200Z,16736.00
2019-03-28T11:38:32.210Z,18176.00
2019-03-28T11:39:32.316Z,21408.00
2019-03-28T11:40:32.171Z,28736.00
2019-03-28T11:41:32.166Z,25920.00
2019-03-28T11:42:32.140Z,25568.00
2019-03-28T11:43:32.127Z,23040.00
2019-03-28T11:44:32.154Z,21088.00
2019-03-28T11:45:32.107Z,20832.00
2019-03-28T11:46:32.098Z,22560.00
2019-03-28T11:47:32.095Z,23904.00
2019-03-28T11:48:32.090Z,22464.00
2019-03-28T11:49:32.118Z,22528.00
2019-03-28T11:50:32.054Z,21728.00
2019-03-28T11:51:32.040Z,21536.00
2019-03-28T11:52:32.031Z,22112.00
2019-03-28T11:53:32.022Z,24000.00
2019-03-28T11:54:32.043Z,24736.00
2019-03-28T11:55:31.999Z,25376.00
2019-03-28T11:56:31.995Z,23904.00
2019-03-28T11:57:31.978Z,21408.00
2019-03-28T11:58:31.970Z,20160.00
2019-03-28T11:59:32.560Z,20736.00
2019-03-28T12:00:31.978Z,23520.00
2019-03-28T12:01:31.942Z,27936.00
2019-03-28T12:02:31.930Z,28832.00
2019-03-28T12:03:31.918Z,25536.00
2019-03-28T12:04:31.928Z,23808.00
2019-03-28T12:05:31.917Z,23328.00
2019-03-28T12:06:31.885Z,25984.00
2019-03-28T12:07:31.908Z,34208.00
2019-03-28T12:08:31.856Z,34176.00
2019-03-28T12:09:31.866Z,24896.00
2019-03-28T12:10:31.914Z,25568.00
2019-03-28T12:11:31.852Z,24032.00
2019-03-28T12:12:31.832Z,22176.00
2019-03-28T12:13:44.244Z,21376.00
2019-03-28T12:14:32.794Z,20960.00
2019-03-28T12:15:31.812Z,20576.00
2019-03-28T12:16:31.805Z,19680.00
2019-03-28T12:17:31.769Z,18880.00
2019-03-28T12:18:31.773Z,18592.00
2019-03-28T12:19:31.739Z,19200.00
2019-03-28T12:20:31.763Z,20352.00
2019-03-28T12:21:31.723Z,21472.00
2019-03-28T12:22:31.711Z,22432.00
2019-03-28T12:23:31.699Z,22144.00
2019-03-28T12:24:31.723Z,21504.00
2019-03-28T12:25:31.705Z,20192.00
2019-03-28T12:26:31.666Z,18784.00
2019-03-28T12:27:31.655Z,18400.00
2019-03-28T12:28:31.645Z,19808.00
2019-03-28T12:29:31.681Z,21952.00
2019-03-28T12:30:31.661Z,24512.00
2019-03-28T12:31:33.214Z,23168.00
2019-03-28T12:32:31.606Z,23168.00
2019-03-28T12:33:31.606Z,21504.00
2019-03-28T12:34:31.609Z,21664.00
2019-03-28T12:35:31.615Z,22656.00
2019-03-28T12:36:31.560Z,22624.00
2019-03-28T12:37:31.557Z,19616.00
2019-03-28T12:38:31.551Z,17696.00
2019-03-28T12:39:31.532Z,16416.00
2019-03-28T12:40:31.540Z,16224.00
2019-03-28T12:41:31.507Z,17280.00
2019-03-28T12:42:31.521Z,18112.00
2019-03-28T12:43:31.488Z,17920.00
2019-03-28T12:44:31.483Z,17664.00
2019-03-28T12:45:31.472Z,17984.00
2019-03-28T12:46:31.486Z,18624.00
2019-03-28T12:47:41.507Z,19392.00
2019-03-28T12:48:32.560Z,20864.00
2019-03-28T12:49:31.422Z,21280.00
2019-03-28T12:50:31.411Z,19840.00
2019-03-28T12:51:31.426Z,18528.00
2019-03-28T12:52:31.393Z,18176.00
2019-03-28T12:53:31.375Z,17536.00
2019-03-28T12:54:31.370Z,16544.00
2019-03-28T12:55:31.353Z,15392.00
2019-03-28T12:56:31.373Z,14144.00
2019-03-28T12:57:31.354Z,13948.00
2019-03-28T12:58:31.327Z,14648.00
2019-03-28T12:59:33.727Z,16992.00
2019-03-28T13:00:31.330Z,20960.00
2019-03-28T13:01:31.300Z,23360.00
2019-03-28T13:02:32.076Z,22272.00
2019-03-28T13:03:44.456Z,22304.00
2019-03-28T13:04:32.259Z,18656.00
2019-03-28T13:05:34.502Z,17984.00
2019-03-28T13:06:31.268Z,18272.00
2019-03-28T13:07:31.274Z,18816.00
2019-03-28T13:08:31.221Z,18912.00
2019-03-28T13:09:31.226Z,18208.00
2019-03-28T13:10:31.195Z,17536.00
2019-03-28T13:11:31.188Z,17408.00
2019-03-28T13:12:31.177Z,17440.00
2019-03-28T13:13:31.196Z,17184.00
2019-03-28T13:14:31.488Z,16960.00
2019-03-28T13:15:31.151Z,16640.00
2019-03-28T13:16:31.612Z,16416.00
2019-03-28T13:17:31.164Z,15744.00
2019-03-28T13:18:31.138Z,14932.00
2019-03-28T13:19:31.103Z,14292.00
2019-03-28T13:20:31.095Z,13076.00
2019-03-28T13:21:31.093Z,12328.00
2019-03-28T13:22:31.071Z,11812.00
2019-03-28T13:23:31.079Z,11856.00
2019-03-28T13:24:31.076Z,12184.00
2019-03-28T13:25:31.050Z,11832.00
2019-03-28T13:26:31.026Z,10576.00
2019-03-28T13:27:34.370Z,9288.00
2019-03-28T13:28:31.005Z,8500.00
2019-03-28T13:29:31.022Z,8344.00
2019-03-28T13:30:31.003Z,8688.00
2019-03-28T13:31:30.976Z,9328.00
2019-03-28T13:32:41.216Z,9932.00
2019-03-28T13:33:32.000Z,10180.00
2019-03-28T13:34:30.949Z,10232.00
2019-03-28T13:35:30.929Z,10548.00
2019-03-28T13:36:30.925Z,11352.00
2019-03-28T13:37:30.917Z,12668.00
2019-03-28T13:38:30.897Z,14092.00
2019-03-28T13:39:30.924Z,13856.00
2019-03-28T13:40:30.891Z,12488.00
2019-03-28T13:41:30.862Z,11624.00
2019-03-28T13:42:30.849Z,11208.00
2019-03-28T13:43:30.955Z,11040.00
2019-03-28T13:44:30.929Z,10812.00
2019-03-28T13:45:30.825Z,10544.00
2019-03-28T13:46:30.810Z,10136.00
2019-03-28T13:47:30.832Z,9888.00
2019-03-28T13:48:30.831Z,10028.00
2019-03-28T13:49:30.775Z,10560.00
2019-03-28T13:50:30.767Z,11308.00
2019-03-28T13:51:30.755Z,11796.00
2019-03-28T13:52:30.755Z,11564.00
2019-03-28T13:53:39.441Z,10640.00
2019-03-28T13:54:31.737Z,10444.00
2019-03-28T13:55:30.708Z,11056.00
2019-03-28T13:56:30.728Z,12212.00
2019-03-28T13:57:30.685Z,12064.00
2019-03-28T13:58:30.684Z,10812.00
2019-03-28T13:59:31.877Z,9308.00
2019-03-28T14:00:30.677Z,8632.00
2019-03-28T14:01:30.703Z,8460.00
2019-03-28T14:02:30.634Z,8536.00
2019-03-28T14:03:30.620Z,8652.00
2019-03-28T14:04:30.644Z,8784.00
2019-03-28T14:05:30.599Z,8992.00
2019-03-28T14:06:30.865Z,9264.00
2019-03-28T14:07:30.597Z,9312.00
2019-03-28T14:08:30.637Z,8916.00
2019-03-28T14:09:30.554Z,8536.00
2019-03-28T14:10:30.604Z,8536.00
2019-03-28T14:11:30.563Z,8872.00
2019-03-28T14:12:31.931Z,9496.00
2019-03-28T14:13:30.512Z,10088.00
2019-03-28T14:14:30.498Z,10112.00
2019-03-28T14:15:30.509Z,9524.00
2019-03-28T14:16:30.885Z,8836.00
2019-03-28T14:17:30.464Z,8412.00
2019-03-28T14:18:30.486Z,8256.00
2019-03-28T14:19:30.467Z,8152.00
2019-03-28T14:20:30.440Z,7996.00
2019-03-28T14:21:30.458Z,7732.00
2019-03-28T14:22:30.591Z,7396.00
2019-03-28T14:23:30.405Z,7164.00
2019-03-28T14:24:30.396Z,6928.00
2019-03-28T14:25:30.379Z,6784.00
2019-03-28T14:26:30.363Z,6660.00
2019-03-28T14:27:30.928Z,6496.00
2019-03-28T14:28:30.340Z,6428.00
2019-03-28T14:29:30.349Z,6576.00
2019-03-28T14:30:30.322Z,7036.00
2019-03-28T14:31:30.336Z,7596.00
2019-03-28T14:32:33.081Z,8072.00
2019-03-28T14:33:30.286Z,8332.00
2019-03-28T14:34:30.273Z,7568.00
2019-03-28T14:35:30.264Z,7376.00
2019-03-28T14:36:30.457Z,7184.00
2019-03-28T14:37:30.246Z,7012.00
2019-03-28T14:38:30.229Z,6768.00
2019-03-28T14:39:30.295Z,6404.00
2019-03-28T14:40:30.237Z,6120.00
2019-03-28T14:41:30.206Z,5964.00
2019-03-28T14:42:30.204Z,5876.00
2019-03-28T14:43:30.185Z,5832.00
2019-03-28T14:44:30.201Z,5840.00
2019-03-28T14:45:30.197Z,5900.00
2019-03-28T14:46:30.151Z,5948.00
2019-03-28T14:47:30.132Z,5860.00
2019-03-28T14:48:30.137Z,5732.00
2019-03-28T14:49:30.278Z,5664.00
2019-03-28T14:50:30.150Z,5684.00
2019-03-28T14:51:30.091Z,5740.00
2019-03-28T14:52:30.101Z,5780.00
2019-03-28T14:53:30.074Z,5740.00
2019-03-28T14:54:30.079Z,5568.00
2019-03-28T14:55:30.149Z,5264.00
2019-03-28T14:56:30.090Z,5024.00
2019-03-28T14:57:30.022Z,4808.00
2019-03-28T14:58:30.019Z,4576.00
2019-03-28T14:59:32.668Z,4396.00
2019-03-28T15:00:30.074Z,4172.00
2019-03-28T15:01:30.037Z,3928.00
2019-03-28T15:02:30.001Z,3612.00
2019-03-28T15:03:29.960Z,3280.00
2019-03-28T15:04:29.994Z,2980.00
2019-03-28T15:05:29.945Z,2744.00
2019-03-28T15:06:29.969Z,2596.00
2019-03-28T15:07:29.925Z,2496.00
2019-03-28T15:08:29.919Z,2492.00
2019-03-28T15:09:30.008Z,2520.00
2019-03-28T15:10:29.876Z,2556.00
2019-03-28T15:11:30.186Z,2540.00
2019-03-28T15:12:29.859Z,2488.00
2019-03-28T15:13:29.861Z,2440.00
2019-03-28T15:14:29.877Z,2404.00
2019-03-28T15:15:29.853Z,2396.00
2019-03-28T15:16:29.861Z,2376.00
2019-03-28T15:17:29.969Z,2360.00
2019-03-28T15:18:30.023Z,2324.00
2019-03-28T15:19:29.793Z,2324.00
2019-03-28T15:20:29.828Z,2324.00
2019-03-28T15:21:29.821Z,2284.00
2019-03-28T15:22:29.756Z,2176.00
2019-03-28T15:23:29.772Z,2048.00
2019-03-28T15:24:29.766Z,1960.00
2019-03-28T15:25:29.779Z,1908.00
2019-03-28T15:26:30.384Z,1892.00
2019-03-28T15:27:29.711Z,1876.00
2019-03-28T15:28:29.700Z,1828.00
2019-03-28T15:29:29.683Z,1768.00
2019-03-28T15:30:29.889Z,1716.00
2019-03-28T15:31:29.669Z,1688.00
2019-03-28T15:32:30.803Z,1668.00
2019-03-28T15:33:39.280Z,1648.00
2019-03-28T15:34:30.648Z,1628.00
2019-03-28T15:35:29.656Z,1644.00
2019-03-28T15:36:29.653Z,1660.00
2019-03-28T15:37:29.605Z,1688.00
2019-03-28T15:38:31.243Z,1692.00
2019-03-28T15:39:29.600Z,1668.00
2019-03-28T15:40:29.577Z,1656.00
2019-03-28T15:41:29.697Z,1628.00
2019-03-28T15:42:29.545Z,1608.00
2019-03-28T15:43:29.534Z,1592.00
2019-03-28T15:44:29.652Z,1556.00
2019-03-28T15:45:29.574Z,1536.00
2019-03-28T15:46:29.541Z,1516.00
2019-03-28T15:47:29.517Z,1496.00
2019-03-28T15:48:29.494Z,1476.00
2019-03-28T15:49:29.568Z,1456.00
2019-03-28T15:50:29.470Z,1460.00
2019-03-28T15:51:29.447Z,1472.00
2019-03-28T15:52:29.444Z,1496.00
2019-03-28T15:53:29.453Z,1508.00
2019-03-28T15:54:29.493Z,1500.00
2019-03-28T15:55:29.447Z,1480.00
2019-03-28T15:56:29.404Z,1428.00
2019-03-28T15:57:29.484Z,1392.00
2019-03-28T15:58:29.373Z,1376.00
2019-03-28T15:59:29.385Z,1384.00
2019-03-28T16:00:29.427Z,1420.00
2019-03-28T16:01:29.356Z,1488.00
2019-03-28T16:02:29.360Z,1532.00
2019-03-28T16:04:09.587Z,1516.00
2019-03-28T16:05:38.113Z,1484.00
2019-03-28T16:06:29.389Z,1500.00
2019-03-28T16:07:29.647Z,1496.00
2019-03-28T16:08:29.366Z,1472.00
2019-03-28T16:09:29.255Z,1464.00
2019-03-28T16:10:29.267Z,1460.00
2019-03-28T16:11:29.283Z,1444.00
2019-03-28T16:12:29.403Z,1408.00
2019-03-28T16:13:29.220Z,1356.00
2019-03-28T16:14:29.306Z,1308.00
2019-03-28T16:15:29.198Z,1272.00
2019-03-28T16:16:29.225Z,1264.00
2019-03-28T16:17:29.168Z,1276.00
2019-03-28T16:18:29.179Z,1312.00
2019-03-28T16:19:32.154Z,1360.00
2019-03-28T16:20:29.144Z,1416.00
2019-03-28T16:21:29.123Z,1440.00
2019-03-28T16:22:29.135Z,1452.00
2019-03-28T16:23:29.573Z,1456.00
2019-03-28T16:24:29.104Z,1464.00
2019-03-28T16:25:29.105Z,1488.00
2019-03-28T16:26:29.098Z,1516.00
2019-03-28T16:27:29.097Z,1524.00
2019-03-28T16:28:31.107Z,1496.00
2019-03-28T16:29:34.103Z,1472.00
2019-03-28T16:30:29.035Z,1444.00
2019-03-28T16:31:29.025Z,1404.00
2019-03-28T16:32:29.008Z,1324.00
2019-03-28T16:33:29.005Z,1260.00
2019-03-28T16:34:28.988Z,1204.00
2019-03-28T16:35:29.026Z,1140.00
2019-03-28T16:36:28.973Z,1088.00
2019-03-28T16:37:28.990Z,1052.00
2019-03-28T16:38:29.038Z,1036.00
2019-03-28T16:40:39.339Z,1040.00
2019-03-28T16:41:39.260Z,1032.00
2019-03-28T16:42:39.276Z,1020.00
2019-03-28T16:43:39.320Z,1016.00
2019-03-28T16:44:39.410Z,1008.00
2019-03-28T16:45:39.461Z,1000.00
2019-03-28T16:46:39.248Z,996.00
2019-03-28T16:47:39.236Z,988.00
2019-03-28T16:48:39.203Z,952.00
2019-03-28T16:49:39.554Z,920.00
2019-03-28T16:50:39.158Z,896.00
2019-03-28T16:51:39.223Z,868.00
2019-03-28T16:52:39.151Z,844.00
2019-03-28T16:53:39.260Z,832.00
2019-03-28T16:54:39.181Z,820.00
2019-03-28T16:55:39.111Z,788.00
2019-03-28T16:56:39.122Z,716.00
2019-03-28T16:57:39.502Z,640.00
2019-03-28T16:58:39.121Z,584.00
2019-03-28T16:59:39.875Z,544.00
2019-03-28T17:00:39.057Z,528.00
2019-03-28T17:01:39.086Z,512.00
2019-03-28T17:02:39.054Z,504.00
2019-03-28T17:03:39.021Z,488.00
2019-03-28T17:04:39.015Z,468.00
2019-03-28T17:05:39.009Z,448.00
2019-03-28T17:06:39.024Z,424.00
2019-03-28T17:07:38.983Z,408.00
2019-03-28T17:08:39.052Z,392.00
2019-03-28T17:09:39.252Z,388.00
2019-03-28T17:10:38.957Z,380.00
2019-03-28T17:11:39.067Z,372.00
2019-03-28T17:12:39.023Z,360.00
2019-03-28T17:13:38.932Z,340.00
2019-03-28T17:14:38.906Z,320.00
2019-03-28T17:15:38.918Z,304.00
2019-03-28T17:16:38.917Z,292.00
2019-03-28T17:17:38.894Z,280.00
2019-03-28T17:18:38.974Z,268.00
2019-03-28T17:19:38.861Z,264.00
2019-03-28T17:20:38.844Z,260.00
2019-03-28T17:21:39.752Z,252.00
2019-03-28T17:22:38.868Z,244.00
2019-03-28T17:23:38.856Z,240.00
2019-03-28T17:24:38.808Z,228.00
2019-03-28T17:25:38.793Z,216.00
2019-03-28T17:26:38.782Z,208.00
2019-03-28T17:27:38.772Z,200.00
2019-03-28T17:28:38.799Z,192.00
2019-03-28T17:29:38.766Z,184.00
2019-03-28T17:30:38.738Z,180.00
2019-03-28T17:31:38.995Z,176.00
2019-03-28T17:32:38.911Z,172.00
2019-03-28T17:33:38.741Z,164.00
2019-03-28T17:34:38.737Z,160.00
2019-03-28T17:35:38.701Z,152.00
2019-03-28T17:36:38.680Z,144.00
2019-03-28T17:37:38.680Z,136.00
2019-03-28T17:38:38.715Z,128.00
2019-03-28T17:39:38.703Z,120.00
2019-03-28T17:40:38.732Z,116.00
2019-03-28T17:41:38.627Z,108.00
2019-03-28T17:42:38.700Z,100.00
2019-03-28T17:43:38.621Z,96.00
2019-03-28T17:44:38.613Z,88.00
2019-03-28T17:45:38.618Z,80.00
2019-03-28T17:46:38.599Z,80.00
2019-03-28T17:47:38.572Z,76.00
2019-03-28T17:48:38.554Z,80.00
2019-03-28T17:49:38.538Z,76.00
2019-03-28T17:50:38.569Z,76.00
2019-03-28T17:51:40.492Z,72.00
2019-03-28T17:52:38.498Z,68.00
2019-03-28T17:53:38.498Z,68.00
2019-03-28T17:54:38.582Z,64.00
2019-03-28T17:55:38.558Z,64.00
2019-03-28T17:56:38.507Z,60.00
2019-03-28T17:57:39.603Z,56.00
2019-03-28T17:58:38.455Z,52.00
2019-03-28T17:59:38.455Z,48.00
2019-03-28T18:00:38.516Z,44.00
2019-03-28T18:01:38.419Z,40.00
2019-03-28T18:02:38.402Z,36.00
2019-03-28T18:03:38.378Z,36.00
2019-03-28T18:04:47.937Z,28.00
2019-03-28T18:05:40.794Z,24.00
2019-03-28T18:06:39.944Z,24.00
2019-03-28T18:07:38.340Z,20.00
2019-03-28T18:08:38.426Z,16.00
2019-03-28T18:09:38.374Z,16.00
2019-03-28T18:10:38.330Z,12.00
2019-03-28T18:11:38.345Z,12.00
2019-03-28T18:12:38.287Z,8.00
2019-03-28T18:13:38.276Z,8.00
2019-03-28T18:14:38.272Z,4.00
2019-03-28T18:15:38.268Z,4.00
2019-03-28T18:16:38.283Z,4.00
2019-03-28T18:17:38.260Z,4.00
2019-03-28T18:18:38.307Z,0.00
2019-03-28T18:19:38.219Z,4.00
2019-03-28T18:20:38.209Z,0.00
2019-03-28T18:21:38.227Z,4.00
2019-03-28T18:22:38.361Z,0.00
2019-03-28T18:23:38.994Z,0.00
2019-03-28T18:24:38.227Z,4.00
2019-03-28T18:25:38.181Z,0.00
2019-03-28T18:26:38.227Z,0.00
2019-03-28T18:27:38.128Z,0.00
2019-03-28T18:28:38.153Z,0.00
2019-03-28T18:29:38.107Z,0.00
2019-03-28T18:30:38.192Z,0.00
2019-03-28T18:31:49.645Z,0.00
2019-03-28T18:32:39.599Z,0.00
2019-03-28T18:33:38.072Z,0.00
2019-03-28T18:34:38.050Z,0.00
2019-03-28T18:35:38.046Z,0.00
2019-03-28T18:36:38.091Z,0.00
2019-03-28T18:37:38.016Z,0.00
2019-03-28T18:38:38.016Z,0.00
2019-03-28T18:39:38.946Z,0.00
2019-03-28T18:40:38.087Z,0.00
2019-03-28T18:41:39.972Z,0.00
2019-03-28T18:42:38.001Z,0.00
2019-03-28T18:43:38.094Z,0.00
2019-03-28T18:44:38.016Z,0.00
2019-03-28T18:45:38.103Z,0.00
2019-03-28T18:46:40.287Z,0.00
2019-03-28T18:47:41.036Z,0.00
2019-03-28T18:48:38.493Z,0.00
2019-03-28T18:49:37.940Z,0.00
2019-03-28T18:50:41.153Z,0.00
2019-03-28T18:51:37.896Z,0.00
2019-03-28T18:52:37.909Z,0.00
2019-03-28T18:53:37.852Z,0.00
2019-03-28T18:54:37.921Z,0.00
2019-03-28T18:55:38.115Z,0.00
2019-03-28T18:56:37.986Z,0.00
2019-03-28T18:57:37.959Z,0.00
2019-03-28T18:58:37.899Z,0.00
2019-03-28T18:59:37.812Z,0.00
2019-03-28T19:00:37.794Z,0.00
2019-03-28T19:01:37.857Z,0.00
2019-03-28T19:02:37.807Z,0.00
2019-03-28T19:03:37.891Z,0.00
2019-03-28T19:04:37.759Z,0.00
2019-03-28T19:05:37.719Z,0.00
2019-03-28T19:06:37.708Z,0.00
2019-03-28T19:07:37.695Z,0.00
2019-03-28T19:08:37.722Z,0.00
2019-03-28T19:09:37.735Z,0.00
2019-03-28T19:10:37.838Z,0.00
2019-03-28T19:11:40.773Z,0.00